My Meet Scores
Sophia Janulis, Phenom Gymnastics - MyMeetScores.com
Top100 | Top Teams | Upcoming Meets | Completed Meets | Latest | Add Scores | Help| Support | Bookmark and Share

Sophia Janulis, Phenom Gymnastics
Personal Bests
LevelVault BarsBeamFloorAA
39.2509.000 9.2259.22536.300
49.1759.575 9.9009.72538.225
59.4759.600 9.7009.15037.600
79.2009.250 9.5509.22536.075
Scores on America's Top 100as of 11.21.2019
Year Level Vault Bars Beam Floor AA
2016 49.900
Meet Scores
Date Meet Team Session Level Division Vault Bars Beam Floor AA
2019-03-29 Illinois Level 7 & 8 State Meet Phenom Gymnastics 7 7 Jr F 9.200 10T 8.200 23 8.750 21 8.050 24 34.200 24
2019-03-01 NGCD Academy's 2019 Flip'r Invitational Phenom Gymnastics 6 7 Jr B 9.000 8 0.000 13T 9.250 6 8.250 13 26.500 13
2019-02-23 Kinetic Classic 2019 Phenom Gymnastics 1 7 Middle 8.800 9 9.150 6 8.375 13 8.775 15 35.100 10
2019-02-01 The Big Chill Phenom Gymnastics 5 7 12 & 13 yr 9.175 2 9.250 2 8.900 3T 8.750 9 36.075 2
2019-01-18 2019 Bravo Classic Phenom Gymnastics 10A 7 Jr 9.100 3 9.200 5 9.450 4T 7.900 17 35.650 8
2018-12-14 2018 Aspire Classic Phenom Gymnastics 11B 7 Middle 8.825 4T 8.150 14 8.925 9 8.650 17 34.550 13
2018-12-07 2018 MEGA Magic Classic Phenom Gymnastics A6 7 Jr B 8.350 16 8.400 15 9.550 1 9.225 12T 35.525 9
2018-03-08 Level 4 & 5 State Phenom Gymnastics 11 5 Jr B 9.475 3T 9.275 4 9.700 1 9.150 10T 37.600 1
2018-03-02 2018 Flip'r Invitational Phenom Gymnastics 3 5 Senior 9.150 5 9.300 3 9.650 1 8.850 10 36.950 3
2018-02-16 Big Classic Phenom Gymnastics 4A 5 Child C 9.100 1 9.600 1 9.500 1 7.850 13 36.050 3
2018-01-19 2018 Bravo Classic Phenom Gymnastics 3B 5 Jr 9.250 9T 9.500 1 9.550 3 7.550 23 35.850 18
2017-12-15 2017 Aspire Classic Phenom Gymnastics 5A 5 Younger 8.900 6 8.075 19 9.600 1 8.350 19T 34.925 15
2017-12-08 MEGA Magic Classic 2017 Phenom Gymnastics 3A 5 Jr B 9.075 5 7.900 15 8.825 15 6.900 17 32.700 17
2017-11-16 Paul Hamm Thanksgiving Classic - Women Phenom Gymnastics 8 5 Older 9.350 5T 7.850 24 9.500 5T 7.250 27 33.950 24
2017-03-10 2017 Illinois Level 4 State Championships Phenom Gymnastics 4 4 Youth D 8.950 11 9.525 2 9.250 13 9.475 2 37.200 3
2017-02-24 Kinetic Classic Phenom Gymnastics 5,6 4 All Ages 8.650 74T 9.500 13T 9.475 9T 9.450 7T 37.075 13
2017-02-02 The Big Chill Phenom Gymnastics 2 4 10 Year Ol 9.050 5 9.100 6 9.675 1 9.275 5 37.100 4
2017-01-20 2017 Bravo Classic Phenom Gymnastics 06B 4 10yrs 9.100 2 9.575 2 9.775 1 9.700 1 38.150 1
2016-12-16 2016 Aspire Classic Phenom Gymnastics 7 4 Middle 9.175 3 9.425 2T 9.900 1 9.725 2 38.225 2
2016-12-09 MEGA Magic Classic 2016 Phenom Gymnastics 8A 4 Child B 9.025 3 9.475 1T 9.475 1 9.225 3 37.200 1
2016-12-02 Ultimate Wish Classic Phenom Gymnastics 5 4 Jr B 9.100 4 9.425 2 9.775 1 9.525 2T 37.825 2
2016-03-10 2016 Illinois Level 4 State Meet Phenom Gymnastics All 4 Child-F 9.025 14 9.075 12 9.050 14 9.150 8 36.300 10
2016-02-20 Big Classic Phenom Gymnastics 2B 4 Child A 8.675 13 9.250 5T 8.825 12T 9.100 6 35.850 10
2016-01-15 2016 Bravo Classic Phenom Gymnastics 14A 4 9yrs 8.150 20T 9.250 5 9.575 1 9.025 9T 36.000 7
2015-12-11 St. Nick Invite Phenom Gymnastics 5A 4 Child 8.550 8T 8.250 10 9.425 4 8.800 5 35.025 5
2015-03-12 2015 Illinois Level 3 State Championship Phenom Gymnastics All 3 Youth-A 9.250 16 8.675 25 9.225 10 9.150 16 36.300 18
2015-03-05 Spring Hill Elgin Invitational Phenom Gymnastics 3B 3 CHILD 9.200 34T 9.000 21T 9.200 6T 8.875 37T 36.275 19
2014-12-12 2014 MEGA Magic Classic Phenom Gymnastics 1 3 Child A 8.725 20 7.650 15T 8.800 4 9.225 5 34.400 11
Get your scores on
a t-shirt, pin, or hoodie

www.lazysuits.com